Flight Track Log - Related Links

Times and Time Zones

All times are in EDT time to prevent confusion due to time zone crossing. See the SKW6528 flight status page for this flight to view local times or setup timezone preferences in your user account.

Time Position Orientation Groundspeed Altitude Reporting Facility
EDT Latitude Longitude Course Direction KTS MPH feet Rate Location/Type
Sat 08:48:27 PM 33.9333 -118.4500 90° East 189 217 1,700  Level Southern California TRACON
Sat 08:49:33 PM 33.8833 -118.5167 228° Southwest 256 295 4,000 2,500 Climbing Southern California TRACON
Sat 08:50:00 PM 33.7574 -118.6098 132° Southeast  Level FlightAware Approximate
Sat 08:50:27 PM 33.8278 -118.5314 192° South 255 293 6,700  Level Los Angeles Center
Sat 08:51:00 PM 33.6792 -118.4919 101° East  Level FlightAware Approximate
Sat 08:51:29 PM 33.7531 -118.5239 175° South 271 312 9,500  Level Los Angeles Center
Sat 08:52:00 PM 33.6388 -118.3470 116° Southeast  Level FlightAware Approximate
Sat 08:52:31 PM 33.6767 -118.4867 158° South 326 375 11,600  Level Los Angeles Center
Sat 08:53:00 PM 33.6333 -118.1945 90° East  Level FlightAware Approximate
Sat 08:53:32 PM 33.6503 -118.3536 103° East 354 407 15,000  Level Los Angeles Center
Sat 08:54:34 PM 33.6456 -118.2369 93° East 361 415 17,600 2,341 Climbing Los Angeles Center
Sat 08:55:35 PM 33.6444 -118.1131 91° East 374 430 19,800 2,049 Climbing Los Angeles Center
Sat 08:56:37 PM 33.6439 -117.9819 90° East 394 453 21,800 1,951 Climbing Los Angeles Center
Sat 08:57:38 PM 33.6433 -117.8483 90° East 404 465 23,800 1,756 Climbing Los Angeles Center
Sat 08:58:40 PM 33.6428 -117.7086 90° East 417 480 25,400 1,935 Climbing Los Angeles Center
Sat 08:59:42 PM 33.6417 -117.5386 90° East 425 489 27,800 1,902 Climbing Los Angeles Center
Sat 09:00:43 PM 33.6408 -117.3942 90° East 434 499 29,300 1,463 Climbing Los Angeles Center
Sat 09:01:45 PM 33.6403 -117.2458 90° East 444 511 30,800 1,415 Climbing Los Angeles Center
Sat 09:02:46 PM 33.6378 -117.0972 91° East 448 516 32,200 927 Climbing Los Angeles Center
Sat 09:03:48 PM 33.6364 -116.9425 91° East 464 534 32,700 634 Climbing Los Angeles Center
Sat 09:04:49 PM 33.6356 -116.7686 90° East 487 560 33,500 756 Climbing Los Angeles Center
Sat 09:06:03 PM 33.6333 -116.6000 91° East 501 577 34,400 662 Climbing Los Angeles Center
Sat 09:07:05 PM 33.6306 -116.3950 91° East 510 587 35,000 290 Climbing Los Angeles Center
Sat 09:08:07 PM 33.6283 -116.2253 91° East 509 586 35,000  Level Los Angeles Center
Sat 09:09:08 PM 33.6253 -116.0561 91° East 506 582 35,000  Level Los Angeles Center
Sat 09:10:10 PM 33.6214 -115.8917 92° East 494 568 35,000  Level Los Angeles Center
Sat 09:11:11 PM 33.6183 -115.6986 91° East 485 558 35,000  Level Los Angeles Center
Sat 09:12:13 PM 33.6131 -115.5353 92° East 488 562 35,000  Level Los Angeles Center
Sat 09:13:14 PM 33.6089 -115.3719 92° East 489 563 35,000  Level Los Angeles Center
Sat 09:14:16 PM 33.6058 -115.2100 91° East 486 559 35,000  Level Los Angeles Center
Sat 09:15:17 PM 33.6014 -115.0489 92° East 485 558 35,000 -195 Level Los Angeles Center
Sat 09:16:19 PM 33.5956 -114.8853 92° East 490 564 34,600 -1,317 Descending Los Angeles Center
Sat 09:17:20 PM 33.5839 -114.7194 95° East 497 572 32,300 -2,365 Descending Los Angeles Center
Sat 09:18:03 PM 33.5678 -114.6014 99° East 490 564 30,500 -2,192 Descending Albuquerque Center
Sat 09:19:04 PM 33.5367 -114.4511 104° East 472 543 28,500 -1,672 Descending Albuquerque Center
Sat 09:20:05 PM 33.5086 -114.3089 103° East 447 514 27,100 -1,339 Descending Albuquerque Center
Sat 09:21:05 PM 33.4811 -114.1694 103° East 435 501 25,800 -1,041 Descending Albuquerque Center
Sat 09:22:06 PM 33.4533 -114.0289 103° East 434 499 25,000 -787 Descending Albuquerque Center
Sat 09:23:07 PM 33.4256 -113.8906 103° East 431 496 24,200 -1,279 Descending Albuquerque Center
Sat 09:24:08 PM 33.3961 -113.7511 104° East 433 498 22,400 -1,770 Descending Albuquerque Center
Sat 09:25:09 PM 33.3686 -113.6125 103° East 430 495 20,600 -1,672 Descending Albuquerque Center
Sat 09:26:10 PM 33.3425 -113.4847 104° East 405 466 19,000 -1,770 Descending Albuquerque Center
Sat 09:27:11 PM 33.3128 -113.3378 104° East 383 441 17,000 -1,525 Descending Albuquerque Center
Sat 09:28:12 PM 33.2878 -113.2211 104° East 368 423 15,900 -885 Descending Albuquerque Center
Sat 09:29:13 PM 33.2750 -113.1064 98° East 354 407 15,200 -496 Descending Albuquerque Center
Sat 09:30:13 PM 33.2761 -112.9925 89° East 345 397 14,900 -149 Descending Albuquerque Center
Sat 09:31:14 PM 33.2794 -112.8786 88° East 344 396 14,900  Level Albuquerque Center
Sat 09:32:15 PM 33.2814 -112.7689 89° East 334 384 14,900  Level Albuquerque Center
Sat 09:33:16 PM 33.2836 -112.6589 89° East 332 382 14,900 -590 Level Albuquerque Center
Sat 09:34:17 PM 33.2869 -112.5575 88° East 329 379 13,700 -1,328 Descending Albuquerque Center
Sat 09:35:18 PM 33.2886 -112.4514 89° East 321 369 12,200 -1,078 Descending Albuquerque Center
Sat 09:37:04 PM 33.3000 -112.2833 85° East 244 281 10,700 -843 Descending Phoenix TRACON
Sat 09:37:19 PM 33.2989 -112.2581 93° East 246 283 10,500 -789 Descending Albuquerque Center
Sat 09:38:20 PM 33.3042 -112.1764 86° East 246 283 9,700 -787 Descending Albuquerque Center
Sat 09:39:21 PM 33.3114 -112.0942 84° East 250 288 8,900 -738 Descending Albuquerque Center
Sat 09:40:22 PM 33.3294 -112.0225 73° East 225 259 8,200 -885 Descending Albuquerque Center
Sat 09:41:23 PM 33.3444 -111.9578 74° East 205 236 7,100 -1,033 Descending Albuquerque Center
Sat 09:42:24 PM 33.3453 -111.8942 89° East 193 222 6,100 -984 Descending Albuquerque Center
Sat 09:43:25 PM 33.3447 -111.8281 91° East 199 229 5,100 -545 Descending Albuquerque Center
Sat 09:44:25 PM 33.3594 -111.7736 72° East 198 228 5,000 -545 Descending Albuquerque Center
Sat 09:45:26 PM 33.4108 -111.7853 349° North 198 228 4,000 -590 Descending Albuquerque Center
Sat 09:46:27 PM 33.4261 -111.8397 289° West 174 200 3,800 -590 Descending Albuquerque Center
Sat 09:47:28 PM 33.4286 -111.8967 273° West 172 198 2,800 -984 Descending Albuquerque Center

Login

Don't have an account? Register now (free) for customized features, flight alerts, and more!